createdAt,value
2019-04-23T00:00:45.362Z,5.68
2019-04-23T00:03:13.813Z,5.59
2019-04-23T00:05:48.563Z,5.63
2019-04-23T00:08:25.837Z,5.61
2019-04-23T00:10:53.735Z,5.61
2019-04-23T00:13:21.342Z,5.54
2019-04-23T00:18:42.678Z,5.46
2019-04-23T00:21:15.589Z,5.38
2019-04-23T00:23:59.638Z,5.38
2019-04-23T00:26:27.086Z,5.31
2019-04-23T00:31:24.558Z,5.33
2019-04-23T00:33:58.571Z,4.99
2019-04-23T00:36:32.523Z,5.24
2019-04-23T00:38:55.812Z,5.09
2019-04-23T00:44:04.224Z,5.05
2019-04-23T00:46:37.074Z,5.04
2019-04-23T00:54:12.207Z,4.90
2019-04-23T00:56:49.603Z,4.86
2019-04-23T00:59:12.712Z,4.82
2019-04-23T01:01:49.599Z,4.80
2019-04-23T01:04:20.791Z,4.83
2019-04-23T01:06:51.175Z,4.73
2019-04-23T01:09:22.498Z,4.59
2019-04-23T01:12:03.510Z,4.59
2019-04-23T01:14:29.265Z,4.64
2019-04-23T01:17:02.777Z,4.59
2019-04-23T01:21:51.483Z,4.52
2019-04-23T01:24:28.721Z,4.29
2019-04-23T01:27:39.638Z,4.35
2019-04-23T01:30:10.116Z,4.20
2019-04-23T01:32:36.472Z,4.26
2019-04-23T01:37:46.543Z,4.23
2019-04-23T01:40:27.379Z,4.18
2019-04-23T01:42:44.896Z,4.19
2019-04-23T01:50:36.843Z,4.07
2019-04-23T01:52:59.075Z,4.05
2019-04-23T01:55:26.354Z,3.97
2019-04-23T02:00:36.422Z,3.99
2019-04-23T02:03:11.017Z,3.98
2019-04-23T02:05:58.276Z,3.88
2019-04-23T02:08:08.403Z,3.80
2019-04-23T02:13:16.175Z,3.77
2019-04-23T02:15:50.128Z,3.72
2019-04-23T02:18:18.187Z,3.77
2019-04-23T02:20:53.777Z,3.70
2019-04-23T02:23:31.248Z,3.70
2019-04-23T02:31:23.485Z,3.66
2019-04-23T02:33:53.456Z,3.57
2019-04-23T02:36:11.241Z,3.59
2019-04-23T02:41:16.306Z,3.43
2019-04-23T02:43:44.210Z,3.48
2019-04-23T02:46:15.233Z,3.37
2019-04-23T02:48:56.264Z,3.34
2019-04-23T02:51:31.122Z,3.40
2019-04-23T02:54:04.202Z,3.31
2019-04-23T03:01:40.046Z,3.21
2019-04-23T03:04:11.850Z,3.17
2019-04-23T03:06:38.868Z,3.18
2019-04-23T03:09:15.206Z,3.07
2019-04-23T03:11:48.377Z,3.09
2019-04-23T03:19:25.505Z,2.95
2019-04-23T03:24:54.962Z,2.91
2019-04-23T03:42:30.577Z,2.75
2019-04-23T03:47:37.236Z,2.63
2019-04-23T03:52:34.862Z,2.71
2019-04-23T03:55:19.111Z,2.67
2019-04-23T03:57:30.600Z,2.70
2019-04-23T04:00:15.609Z,2.57
2019-04-23T04:02:49.013Z,2.54
2019-04-23T04:05:17.890Z,2.53
2019-04-23T04:08:06.273Z,2.59
2019-04-23T04:10:16.190Z,2.56
2019-04-23T04:15:45.810Z,2.53
2019-04-23T04:18:01.611Z,2.50
2019-04-23T04:23:13.394Z,2.63
2019-04-23T04:25:37.135Z,2.64
2019-04-23T04:36:03.754Z,2.81
2019-04-23T04:38:38.499Z,2.78
2019-04-23T04:43:31.734Z,2.92
2019-04-23T04:46:14.911Z,2.99
2019-04-23T04:51:11.098Z,3.12
2019-04-23T04:53:50.482Z,3.19
2019-04-23T04:58:56.421Z,3.31
2019-04-23T05:01:24.843Z,3.41
2019-04-23T05:03:45.846Z,3.43
2019-04-23T05:08:48.040Z,3.63
2019-04-23T05:11:39.007Z,3.74
2019-04-23T05:16:19.372Z,3.81
2019-04-23T05:18:52.211Z,3.99
2019-04-23T05:23:52.430Z,4.19
2019-04-23T05:26:25.132Z,4.29
2019-04-23T05:28:59.505Z,4.42
2019-04-23T05:36:58.393Z,4.73
2019-04-23T05:39:31.248Z,4.88
2019-04-23T05:42:00.634Z,5.08
2019-04-23T05:47:11.478Z,5.30
2019-04-23T05:49:33.041Z,5.49
2019-04-23T05:52:09.455Z,5.59
2019-04-23T05:54:44.686Z,5.74
2019-04-23T05:57:06.958Z,5.83
2019-04-23T05:59:45.295Z,5.93
2019-04-23T06:02:11.321Z,6.05
2019-04-23T06:04:42.722Z,6.14
2019-04-23T06:09:56.697Z,6.39
2019-04-23T06:12:22.039Z,6.48
2019-04-23T06:14:55.609Z,6.49
2019-04-23T06:17:21.561Z,6.94
2019-04-23T06:19:59.660Z,7.14
2019-04-23T06:22:49.286Z,7.29
2019-04-23T06:25:04.273Z,7.31
2019-04-23T06:27:33.864Z,7.44
2019-04-23T06:30:01.214Z,7.57
2019-04-23T06:32:37.702Z,7.68
2019-04-23T06:35:11.738Z,7.73
2019-04-23T06:38:12.504Z,7.82
2019-04-23T06:42:54.471Z,8.20
2019-04-23T06:45:24.125Z,8.37
2019-04-23T06:48:07.122Z,8.42
2019-04-23T06:50:27.183Z,8.61
2019-04-23T06:52:54.467Z,8.73
2019-04-23T06:55:38.720Z,8.87
2019-04-23T06:58:17.055Z,8.97
2019-04-23T07:00:41.995Z,9.09
2019-04-23T07:03:14.770Z,9.31
2019-04-23T07:06:11.827Z,9.45
2019-04-23T07:08:43.026Z,9.57
2019-04-23T07:11:17.197Z,9.71
2019-04-23T07:13:47.194Z,9.89
2019-04-23T07:16:09.579Z,9.90
2019-04-23T07:18:41.602Z,9.88
2019-04-23T07:21:18.357Z,10.01
2019-04-23T07:24:00.658Z,10.32
2019-04-23T07:26:30.530Z,10.37
2019-04-23T07:28:56.480Z,10.61
2019-04-23T07:31:26.334Z,10.58
2019-04-23T07:33:55.790Z,10.64
2019-04-23T07:36:34.254Z,11.03
2019-04-23T07:44:28.192Z,11.66
2019-04-23T07:47:15.780Z,11.75
2019-04-23T07:49:49.354Z,11.86
2019-04-23T07:52:18.025Z,12.44
2019-04-23T07:54:45.700Z,12.54
2019-04-23T07:57:19.889Z,12.34
2019-04-23T07:59:56.422Z,12.78
2019-04-23T08:02:26.166Z,13.08
2019-04-23T08:07:30.083Z,13.43
2019-04-23T08:12:31.554Z,13.69
2019-04-23T08:15:05.114Z,13.59
2019-04-23T08:17:31.335Z,13.82
2019-04-23T08:22:39.335Z,14.27
2019-04-23T08:25:26.010Z,14.44
2019-04-23T08:27:56.008Z,14.50
2019-04-23T08:30:28.788Z,14.83
2019-04-23T08:33:03.723Z,14.88
2019-04-23T08:35:37.762Z,14.81
2019-04-23T08:38:21.133Z,14.93
2019-04-23T08:40:47.257Z,15.07
2019-04-23T08:43:34.983Z,15.15
2019-04-23T08:45:59.546Z,15.09
2019-04-23T08:51:19.463Z,16.02
2019-04-23T08:56:06.747Z,16.01
2019-04-23T08:58:47.364Z,16.86
2019-04-23T09:06:14.037Z,15.86
2019-04-23T09:08:42.114Z,16.28
2019-04-23T09:11:30.779Z,16.54
2019-04-23T09:18:58.527Z,17.16
2019-04-23T09:21:25.672Z,17.50
2019-04-23T09:23:51.786Z,16.60
2019-04-23T09:26:22.711Z,16.85
2019-04-23T09:28:56.706Z,17.50
2019-04-23T09:32:11.177Z,18.13
2019-04-23T09:37:37.304Z,17.68
2019-04-23T09:40:28.334Z,17.66
2019-04-23T09:45:43.801Z,18.10
2019-04-23T09:48:27.299Z,17.28
2019-04-23T09:50:49.442Z,17.95
2019-04-23T09:53:24.927Z,17.54
2019-04-23T09:55:45.411Z,18.31
2019-04-23T09:58:20.464Z,18.80
2019-04-23T10:01:19.971Z,18.13
2019-04-23T10:03:36.311Z,17.77
2019-04-23T10:06:02.974Z,16.82
2019-04-23T10:08:32.168Z,16.61
2019-04-23T10:10:57.463Z,17.39
2019-04-23T10:13:27.762Z,18.27
2019-04-23T10:15:58.162Z,18.52
2019-04-23T10:18:29.086Z,18.56
2019-04-23T10:20:59.377Z,18.84
2019-04-23T10:23:29.576Z,18.74
2019-04-23T10:26:01.914Z,17.63
2019-04-23T10:28:38.036Z,18.19
2019-04-23T10:31:09.015Z,18.59
2019-04-23T10:33:39.911Z,18.81
2019-04-23T10:36:13.682Z,19.79
2019-04-23T10:38:51.296Z,18.40
2019-04-23T10:41:14.187Z,17.68
2019-04-23T10:43:48.759Z,18.34
2019-04-23T10:46:45.519Z,18.76
2019-04-23T10:49:47.758Z,17.06
2019-04-23T10:52:07.032Z,17.84
2019-04-23T10:57:16.650Z,20.00
2019-04-23T11:02:35.090Z,20.36
2019-04-23T11:07:29.823Z,19.31
2019-04-23T11:12:42.374Z,19.52
2019-04-23T11:15:09.277Z,21.76
2019-04-23T11:17:38.343Z,19.21
2019-04-23T11:20:17.574Z,19.73
2019-04-23T11:25:14.749Z,19.28
2019-04-23T11:30:20.130Z,18.46
2019-04-23T11:32:57.299Z,18.70
2019-04-23T11:35:22.622Z,18.94
2019-04-23T11:40:21.124Z,18.75
2019-04-23T11:45:32.283Z,19.03
2019-04-23T11:48:22.399Z,20.28
2019-04-23T11:50:41.289Z,19.07
2019-04-23T11:52:56.755Z,19.26
2019-04-23T11:55:40.361Z,18.44
2019-04-23T12:00:44.975Z,20.03
2019-04-23T12:03:06.163Z,19.49
2019-04-23T12:11:39.386Z,19.18
2019-04-23T12:14:15.444Z,20.26
2019-04-23T12:16:50.603Z,19.48
2019-04-23T12:19:35.084Z,19.61
2019-04-23T12:21:43.415Z,20.45
2019-04-23T12:24:37.948Z,19.87
2019-04-23T12:27:06.157Z,18.63
2019-04-23T12:29:23.331Z,18.89
2019-04-23T12:32:16.120Z,19.32
2019-04-23T12:34:44.313Z,18.87
2019-04-23T12:37:14.377Z,20.07
2019-04-23T12:39:56.725Z,19.74
2019-04-23T12:42:43.378Z,19.54
2019-04-23T12:44:56.359Z,19.44
2019-04-23T12:47:38.450Z,19.51
2019-04-23T12:52:35.898Z,19.03
2019-04-23T13:00:09.899Z,21.06
2019-04-23T13:02:40.254Z,20.23
2019-04-23T13:05:23.140Z,21.73
2019-04-23T13:07:38.118Z,20.78
2019-04-23T13:10:15.644Z,19.62
2019-04-23T13:12:57.646Z,19.29
2019-04-23T13:17:52.460Z,19.40
2019-04-23T13:22:57.739Z,19.58
2019-04-23T13:25:41.954Z,19.44
2019-04-23T13:28:17.375Z,20.23
2019-04-23T13:30:46.205Z,19.93
2019-04-23T13:33:21.079Z,19.50
2019-04-23T13:35:55.299Z,19.17
2019-04-23T13:38:28.001Z,21.13
2019-04-23T13:40:57.671Z,22.05
2019-04-23T13:48:23.317Z,18.76
2019-04-23T13:56:06.236Z,19.22
2019-04-23T13:58:44.962Z,20.04
2019-04-23T14:06:33.563Z,20.90
2019-04-23T14:16:28.594Z,18.78
2019-04-23T14:21:25.591Z,19.01
2019-04-23T14:29:13.063Z,18.80
2019-04-23T14:31:28.419Z,18.79
2019-04-23T14:36:36.166Z,18.63
2019-04-23T14:39:16.209Z,18.40
2019-04-23T14:41:32.058Z,18.29
2019-04-23T14:44:16.121Z,18.46
2019-04-23T14:47:03.387Z,18.74
2019-04-23T14:52:09.218Z,18.91
2019-04-23T14:55:11.374Z,19.55
2019-04-23T14:57:15.676Z,20.12
2019-04-23T14:59:46.826Z,18.76
2019-04-23T15:04:47.874Z,18.57
2019-04-23T15:07:22.324Z,18.21
2019-04-23T15:10:01.500Z,18.58
2019-04-23T15:17:28.850Z,19.00
2019-04-23T15:20:03.075Z,18.72
2019-04-23T15:22:42.252Z,18.95
2019-04-23T15:25:19.454Z,18.54
2019-04-23T15:29:58.252Z,19.13
2019-04-23T15:35:23.586Z,18.50
2019-04-23T15:38:12.182Z,18.81
2019-04-23T15:45:21.266Z,18.83
2019-04-23T15:47:58.361Z,18.63
2019-04-23T15:50:28.388Z,18.95
2019-04-23T15:52:58.345Z,18.59
2019-04-23T15:55:27.719Z,19.38
2019-04-23T15:58:07.788Z,19.47
2019-04-23T16:00:42.832Z,19.10
2019-04-23T16:02:40.773Z,20.34
2019-04-23T16:05:12.385Z,20.33
2019-04-23T16:08:01.810Z,19.86
2019-04-23T16:10:49.136Z,19.39
2019-04-23T16:13:40.375Z,18.91
2019-04-23T16:15:50.897Z,19.01
2019-04-23T16:18:35.189Z,18.81
2019-04-23T16:21:00.900Z,19.28
2019-04-23T16:23:28.268Z,19.68
2019-04-23T16:26:08.693Z,19.95
2019-04-23T16:29:00.940Z,20.07
2019-04-23T16:31:18.212Z,19.81
2019-04-23T16:33:57.377Z,19.95
2019-04-23T16:36:24.921Z,20.49
2019-04-23T16:41:30.888Z,19.29
2019-04-23T16:44:09.142Z,20.00
2019-04-23T16:46:33.676Z,19.08
2019-04-23T16:51:32.565Z,19.53
2019-04-23T16:54:09.851Z,19.60
2019-04-23T16:56:55.269Z,19.52
2019-04-23T16:59:15.420Z,18.97
2019-04-23T17:01:44.522Z,19.25
2019-04-23T17:09:18.563Z,19.03
2019-04-23T17:12:00.097Z,19.31
2019-04-23T17:14:32.969Z,19.49
2019-04-23T17:16:49.618Z,18.84
2019-04-23T17:19:27.954Z,18.61
2019-04-23T17:21:59.740Z,18.41
2019-04-23T17:27:11.091Z,18.58
2019-04-23T17:29:35.265Z,18.30
2019-04-23T17:32:07.067Z,18.22
2019-04-23T17:37:19.938Z,17.90
2019-04-23T17:40:06.735Z,17.77
2019-04-23T17:42:50.996Z,17.84
2019-04-23T17:47:43.792Z,17.41
2019-04-23T17:52:51.178Z,17.38
2019-04-23T17:55:15.417Z,17.23
2019-04-23T17:57:57.077Z,17.09
2019-04-23T18:00:25.478Z,17.24
2019-04-23T18:02:58.466Z,17.31
2019-04-23T18:05:16.601Z,17.07
2019-04-23T18:08:11.789Z,16.94
2019-04-23T18:13:04.375Z,16.54
2019-04-23T18:15:24.576Z,16.58
2019-04-23T18:18:11.756Z,16.55
2019-04-23T18:20:44.045Z,16.56
2019-04-23T18:23:18.353Z,16.47
2019-04-23T18:26:10.193Z,16.42
2019-04-23T18:28:29.571Z,16.35
2019-04-23T18:31:13.012Z,15.98
2019-04-23T18:36:14.909Z,16.04
2019-04-23T18:38:47.957Z,15.77
2019-04-23T18:41:10.593Z,15.78
2019-04-23T18:43:55.132Z,15.55
2019-04-23T18:46:27.883Z,15.44
2019-04-23T18:48:54.594Z,15.38
2019-04-23T18:51:27.072Z,15.45
2019-04-23T18:53:52.646Z,15.47
2019-04-23T18:57:00.077Z,15.30
2019-04-23T18:59:21.247Z,15.27
2019-04-23T19:01:36.741Z,15.11
2019-04-23T19:04:33.230Z,14.99
2019-04-23T19:06:51.263Z,15.02
2019-04-23T19:09:16.219Z,14.98
2019-04-23T19:12:08.730Z,14.58
2019-04-23T19:14:31.584Z,14.57
2019-04-23T19:17:33.530Z,14.74
2019-04-23T19:19:35.032Z,14.69
2019-04-23T19:24:37.750Z,14.35
2019-04-23T19:32:08.886Z,14.32
2019-04-23T19:34:46.902Z,14.32
2019-04-23T19:37:10.856Z,13.86
2019-04-23T19:39:48.375Z,14.09
2019-04-23T19:42:17.971Z,14.07
2019-04-23T19:44:47.736Z,13.93
2019-04-23T19:50:12.978Z,13.74
2019-04-23T19:52:52.711Z,13.67
2019-04-23T19:54:58.800Z,13.72
2019-04-23T19:57:42.558Z,13.66
2019-04-23T20:00:01.208Z,13.63
2019-04-23T20:02:55.333Z,13.58
2019-04-23T20:05:07.136Z,13.52
2019-04-23T20:07:47.365Z,13.29
2019-04-23T20:10:03.982Z,13.25
2019-04-23T20:15:07.272Z,13.10
2019-04-23T20:20:18.206Z,13.00
2019-04-23T20:22:51.183Z,13.14
2019-04-23T20:25:57.087Z,12.96
2019-04-23T20:28:02.071Z,12.95
2019-04-23T20:35:56.663Z,12.79
2019-04-23T20:38:33.026Z,12.73
2019-04-23T20:41:05.089Z,12.58
2019-04-23T20:43:34.912Z,12.62
2019-04-23T20:48:40.598Z,12.83
2019-04-23T20:51:06.054Z,12.61
2019-04-23T20:53:45.012Z,12.51
2019-04-23T21:01:22.214Z,12.34
2019-04-23T21:03:56.193Z,12.23
2019-04-23T21:06:30.077Z,12.08
2019-04-23T21:11:36.673Z,12.12
2019-04-23T21:14:15.332Z,12.02
2019-04-23T21:16:36.266Z,12.00
2019-04-23T21:19:02.605Z,11.90
2019-04-23T21:21:50.828Z,11.78
2019-04-23T21:24:06.829Z,11.76
2019-04-23T21:26:50.563Z,11.54
2019-04-23T21:29:13.492Z,11.30
2019-04-23T21:31:48.040Z,11.22
2019-04-23T21:34:21.252Z,11.11
2019-04-23T21:36:50.984Z,10.98
2019-04-23T21:39:34.341Z,10.94
2019-04-23T21:42:24.218Z,10.75
2019-04-23T21:44:32.763Z,10.63
2019-04-23T21:47:11.386Z,10.44
2019-04-23T21:52:11.176Z,10.37
2019-04-23T21:54:43.014Z,10.27
2019-04-23T21:57:18.178Z,10.34
2019-04-23T21:59:52.962Z,10.36
2019-04-23T22:02:21.986Z,10.24
2019-04-23T22:05:09.356Z,10.03
2019-04-23T22:07:35.869Z,10.03
2019-04-23T22:10:05.947Z,10.08
2019-04-23T22:12:33.968Z,9.91
2019-04-23T22:14:55.903Z,9.74
2019-04-23T22:17:32.593Z,9.59
2019-04-23T22:22:51.256Z,9.23
2019-04-23T22:25:04.503Z,9.19
2019-04-23T22:27:44.091Z,9.15
2019-04-23T22:30:11.440Z,9.06
2019-04-23T22:32:55.460Z,8.97
2019-04-23T22:35:10.658Z,8.71
2019-04-23T22:40:14.828Z,8.50
2019-04-23T22:43:09.074Z,8.33
2019-04-23T22:45:43.901Z,8.08
2019-04-23T22:47:58.453Z,8.09
2019-04-23T22:50:27.914Z,7.99
2019-04-23T22:53:00.351Z,8.00
2019-04-23T22:55:32.369Z,7.88
2019-04-23T22:58:08.057Z,7.81
2019-04-23T23:00:33.576Z,7.62
2019-04-23T23:03:27.676Z,7.59
2019-04-23T23:05:56.353Z,7.39
2019-04-23T23:16:10.510Z,7.34
2019-04-23T23:18:23.683Z,7.16
2019-04-23T23:21:04.198Z,7.23
2019-04-23T23:23:32.610Z,7.43
2019-04-23T23:26:09.976Z,7.57
2019-04-23T23:31:20.550Z,7.77
2019-04-23T23:36:32.047Z,7.91
2019-04-23T23:39:00.458Z,7.84
2019-04-23T23:41:35.537Z,7.97
2019-04-23T23:43:54.953Z,8.06
2019-04-23T23:51:21.815Z,8.85
2019-04-23T23:54:06.583Z,8.85
2019-04-23T23:56:22.661Z,8.80
